Time;durP1;ratioP1;P1;durP2;ratioP2;P2;SDS_P1;SDS_P2;PMS_P1;PMS_P2;Temp;Humidity;BMP_temperature;BMP_pressure;BME280_temperature;BME280_humidity;BME280_pressure;Samples;Min_cycle;Max_cycle;Signal;HPM_P1;HPM_P2
2023/03/17 00:02:13;;;;;;;7.05;5.25;;;5.60;88.80;;;;;;5055712;28;20288;-71
2023/03/17 00:05:13;;;;;;;6.78;5.45;;;5.50;89.30;;;;;;5059011;28;20035;-69
2023/03/17 00:07:45;;;;;;;6.50;5.47;;;5.70;89.10;;;;;;5068432;28;20036;-80
2023/03/17 00:10:24;;;;;;;9.68;5.78;;;5.60;89.00;;;;;;5056004;28;20066;-74
2023/03/17 00:13:13;;;;;;;6.50;5.35;;;5.60;89.80;;;;;;5055204;28;20133;-74
2023/03/17 00:15:42;;;;;;;8.00;5.97;;;5.60;90.10;;;;;;5054648;28;20498;-74
2023/03/17 00:18:16;;;;;;;7.60;5.28;;;5.60;90.20;;;;;;5054450;28;20059;-74
2023/03/17 00:20:46;;;;;;;7.07;5.88;;;5.60;90.00;;;;;;5068134;28;20044;-76
2023/03/17 00:23:17;;;;;;;9.40;5.90;;;5.50;90.20;;;;;;5087912;28;20043;-79
2023/03/17 00:25:45;;;;;;;7.93;6.10;;;5.50;90.30;;;;;;5088783;28;20032;-76
2023/03/17 00:28:18;;;;;;;7.85;5.53;;;5.50;90.30;;;;;;5055887;28;20070;-78
2023/03/17 00:30:46;;;;;;;7.28;5.55;;;5.50;90.40;;;;;;5071932;28;20040;-73
2023/03/17 00:33:22;;;;;;;7.97;5.47;;;5.50;90.70;;;;;;5060958;28;20047;-75
2023/03/17 00:36:21;;;;;;;6.28;5.05;;;5.50;90.80;;;;;;5057097;28;20097;-76
2023/03/17 00:38:49;;;;;;;9.95;5.75;;;5.40;91.10;;;;;;5070186;28;20388;-75
2023/03/17 00:41:23;;;;;;;8.00;5.72;;;5.50;90.90;;;;;;5073042;28;20040;-73
2023/03/17 00:43:51;;;;;;;8.05;6.13;;;5.50;91.10;;;;;;5089256;28;20052;-76
2023/03/17 00:46:27;;;;;;;6.65;5.70;;;5.50;91.40;;;;;;5089750;28;20036;-75
2023/03/17 00:48:55;;;;;;;6.70;5.28;;;5.40;91.60;;;;;;5070013;28;20048;-75
2023/03/17 00:51:25;;;;;;;7.43;5.82;;;5.40;91.70;;;;;;5052357;28;20044;-75
2023/03/17 00:53:58;;;;;;;6.75;5.72;;;5.40;92.00;;;;;;5038545;28;20056;-77
2023/03/17 00:56:25;;;;;;;9.85;6.15;;;5.40;91.90;;;;;;5082952;28;20036;-74
2023/03/17 00:58:53;;;;;;;8.18;5.30;;;5.40;92.30;;;;;;5053939;28;20056;-75
2023/03/17 01:01:25;;;;;;;6.30;5.25;;;5.30;92.50;;;;;;5076598;28;20037;-72
2023/03/17 01:03:56;;;;;;;6.10;5.28;;;5.30;93.00;;;;;;5029682;23;20664;-72
2023/03/17 01:06:23;;;;;;;;;;;5.20;93.40;;;;;;5029345;28;20139;-75
2023/03/17 01:08:51;;;;;;;6.70;5.93;;;5.20;93.70;;;;;;5041482;28;19925;-76
2023/03/17 01:11:22;;;;;;;8.00;6.20;;;5.20;94.00;;;;;;5030742;28;20051;-76
2023/03/17 01:13:52;;;;;;;9.45;6.00;;;5.20;94.20;;;;;;5049071;28;20048;-77
2023/03/17 01:16:20;;;;;;;5.97;5.30;;;5.20;94.50;;;;;;5032320;28;20036;-72
2023/03/17 01:18:49;;;;;;;7.22;5.90;;;5.20;94.70;;;;;;5049073;28;20434;-72
2023/03/17 01:21:17;;;;;;;7.70;5.80;;;5.20;95.20;;;;;;5030669;28;20037;-73
2023/03/17 01:23:48;;;;;;;6.85;4.82;;;5.10;95.50;;;;;;5041560;28;20408;-71
2023/03/17 01:26:16;;;;;;;6.72;5.90;;;5.00;96.20;;;;;;5038782;28;20045;-71
2023/03/17 01:28:46;;;;;;;6.70;5.88;;;5.00;96.60;;;;;;5027229;28;20396;-76
2023/03/17 01:31:15;;;;;;;8.20;5.82;;;5.00;97.00;;;;;;5023974;28;20049;-73
2023/03/17 01:33:50;;;;;;;8.00;6.13;;;5.00;97.20;;;;;;5031105;28;20040;-73
2023/03/17 01:36:45;;;;;;;8.02;6.00;;;5.00;97.80;;;;;;5047290;28;20511;-77
2023/03/17 01:39:36;;;;;;;7.13;5.80;;;4.90;98.50;;;;;;5045044;28;20400;-77
2023/03/17 01:42:04;;;;;;;8.15;6.10;;;4.90;99.40;;;;;;5055762;28;20467;-72
2023/03/17 01:44:32;;;;;;;8.52;5.70;;;4.80;99.90;;;;;;5037164;28;20047;-75
2023/03/17 01:46:59;;;;;;;8.38;6.57;;;4.80;99.90;;;;;;5020898;28;20491;-78
2023/03/17 01:49:39;;;;;;;8.65;6.13;;;4.90;99.90;;;;;;5051024;28;20045;-73
2023/03/17 01:52:19;;;;;;;8.02;5.97;;;4.90;99.90;;;;;;5023160;28;20052;-74
2023/03/17 01:54:57;;;;;;;8.48;6.15;;;4.90;99.90;;;;;;5032520;28;20048;-71
2023/03/17 01:57:33;;;;;;;9.48;5.85;;;4.90;99.90;;;;;;5049528;28;20052;-71
2023/03/17 02:00:31;;;;;;;7.22;6.03;;;4.90;99.90;;;;;;5030041;28;20048;-79
2023/03/17 02:02:58;;;;;;;6.32;5.47;;;4.90;99.90;;;;;;5018289;28;20074;-73
2023/03/17 02:05:30;;;;;;;7.28;6.35;;;4.80;99.90;;;;;;5030626;28;20037;-78
2023/03/17 02:07:59;;;;;;;6.75;5.90;;;4.90;99.90;;;;;;5017850;28;20148;-72
2023/03/17 02:10:33;;;;;;;7.47;5.95;;;4.80;99.90;;;;;;5030792;28;20123;-73
2023/03/17 02:13:04;;;;;;;6.70;5.80;;;4.80;99.90;;;;;;5029745;28;20436;-72
2023/03/17 02:15:42;;;;;;;7.47;6.10;;;4.90;99.90;;;;;;5018098;28;20160;-75
2023/03/17 02:18:12;;;;;;;7.60;6.03;;;4.80;99.90;;;;;;5032887;28;20043;-76
2023/03/17 02:20:43;;;;;;;6.78;5.63;;;4.80;99.90;;;;;;5028014;28;20067;-70
2023/03/17 02:23:11;;;;;;;7.72;6.00;;;4.80;99.90;;;;;;5018736;28;20052;-72
2023/03/17 02:25:41;;;;;;;7.60;6.10;;;4.80;99.90;;;;;;5028376;28;20122;-76
2023/03/17 02:28:15;;;;;;;8.48;6.10;;;4.80;99.90;;;;;;5052461;28;20036;-73
2023/03/17 02:30:47;;;;;;;8.45;6.43;;;4.80;99.90;;;;;;5025272;23;20048;-73
2023/03/17 02:33:18;;;;;;;8.98;6.32;;;4.80;99.90;;;;;;5022608;28;20041;-75
2023/03/17 02:36:03;;;;;;;10.27;5.85;;;4.80;99.90;;;;;;5065701;28;20029;-78
2023/03/17 02:38:33;;;;;;;9.02;5.97;;;4.80;99.90;;;;;;5058405;28;20045;-74
2023/03/17 02:41:01;;;;;;;8.27;5.75;;;4.90;99.90;;;;;;5055732;28;20055;-70
2023/03/17 02:43:29;;;;;;;8.82;5.97;;;4.80;99.90;;;;;;5037212;28;20048;-78
2023/03/17 02:45:57;;;;;;;8.15;6.40;;;4.80;99.90;;;;;;5054736;28;20064;-77
2023/03/17 02:48:25;;;;;;;6.53;5.70;;;4.90;99.90;;;;;;5057968;28;20044;-73
2023/03/17 02:50:52;;;;;;;7.80;6.03;;;4.90;99.90;;;;;;5076534;23;20045;-75
2023/03/17 02:53:22;;;;;;;6.38;5.57;;;4.90;99.90;;;;;;5039963;28;20045;-75
2023/03/17 02:55:50;;;;;;;7.78;6.28;;;4.90;99.90;;;;;;5056218;28;20033;-71
2023/03/17 02:58:17;;;;;;;8.73;6.13;;;4.90;99.90;;;;;;5032261;28;20377;-72
2023/03/17 03:00:47;;;;;;;9.07;6.47;;;5.00;99.90;;;;;;5040080;28;20043;-71
2023/03/17 03:03:15;;;;;;;7.90;5.72;;;5.10;99.90;;;;;;5039765;28;20453;-81
2023/03/17 03:05:42;;;;;;;7.97;5.65;;;5.20;99.90;;;;;;5069702;28;20033;-80
2023/03/17 03:08:09;;;;;;;7.90;6.30;;;5.10;99.90;;;;;;5066353;28;20052;-74
2023/03/17 03:10:37;;;;;;;8.77;6.70;;;5.10;99.90;;;;;;5056053;28;20051;-80
2023/03/17 03:13:07;;;;;;;7.10;5.57;;;5.00;99.90;;;;;;5059672;28;20044;-73
2023/03/17 03:15:40;;;;;;;8.35;5.90;;;5.00;99.90;;;;;;5036324;28;20446;-73
2023/03/17 03:18:08;;;;;;;6.93;5.57;;;4.90;99.90;;;;;;5035637;28;20045;-74
2023/03/17 03:20:36;;;;;;;7.05;5.90;;;4.80;99.90;;;;;;5054026;28;20381;-73
2023/03/17 03:23:05;;;;;;;7.05;5.38;;;4.90;99.90;;;;;;5034151;28;20037;-78
2023/03/17 03:25:36;;;;;;;9.40;6.05;;;5.00;99.90;;;;;;5030883;28;20037;-73
2023/03/17 03:28:05;;;;;;;6.60;5.90;;;5.00;99.90;;;;;;5037199;28;20037;-79
2023/03/17 03:30:33;;;;;;;8.65;6.18;;;4.90;99.90;;;;;;5053712;28;20456;-76
2023/03/17 03:33:04;;;;;;;7.53;5.55;;;4.90;99.90;;;;;;5053519;28;20068;-72
2023/03/17 03:35:34;;;;;;;5.97;5.20;;;4.90;99.90;;;;;;5032453;28;20072;-74
2023/03/17 03:38:01;;;;;;;7.93;5.45;;;4.90;99.90;;;;;;5031835;28;20040;-78
2023/03/17 03:40:28;;;;;;;7.32;6.10;;;4.90;99.90;;;;;;5030597;28;20060;-72
2023/03/17 03:43:19;;;;;;;9.55;6.03;;;4.90;99.90;;;;;;5047000;28;20085;-72
2023/03/17 03:45:53;;;;;;;6.45;5.50;;;4.90;99.90;;;;;;5020331;28;20041;-71
2023/03/17 03:48:28;;;;;;;7.78;6.10;;;4.90;99.90;;;;;;5048226;28;20387;-69
2023/03/17 03:50:57;;;;;;;9.60;5.80;;;4.90;99.90;;;;;;5026967;28;20052;-71
2023/03/17 03:53:28;;;;;;;7.90;5.85;;;4.90;99.90;;;;;;5039536;28;20119;-77
2023/03/17 03:55:55;;;;;;;;;;;4.90;99.90;;;;;;5031158;28;20495;-73
2023/03/17 03:58:28;;;;;;;8.30;5.60;;;4.90;99.90;;;;;;5035301;28;19921;-74
2023/03/17 04:01:16;;;;;;;8.18;5.97;;;4.80;99.90;;;;;;5021935;28;20032;-75
2023/03/17 04:03:46;;;;;;;;;;;4.80;99.90;;;;;;5033081;28;20068;-75
2023/03/17 04:06:15;;;;;;;6.50;5.80;;;4.70;99.90;;;;;;5035563;28;19928;-73
2023/03/17 04:08:44;;;;;;;8.85;6.03;;;4.80;99.90;;;;;;5067222;28;20037;-76
2023/03/17 04:11:17;;;;;;;9.65;5.70;;;4.70;99.90;;;;;;5026754;28;20583;-75
2023/03/17 04:13:45;;;;;;;10.32;6.25;;;4.70;99.90;;;;;;5052456;28;20052;-72
2023/03/17 04:16:16;;;;;;;7.70;6.30;;;4.80;99.90;;;;;;5029628;28;20045;-74
2023/03/17 04:18:46;;;;;;;11.27;6.00;;;4.70;99.90;;;;;;5060709;28;20079;-73
2023/03/17 04:21:17;;;;;;;7.20;5.57;;;4.70;99.90;;;;;;5039912;28;20052;-71
2023/03/17 04:23:45;;;;;;;7.28;5.95;;;4.70;99.90;;;;;;5034068;28;20052;-78
2023/03/17 04:26:12;;;;;;;6.57;5.78;;;4.70;99.90;;;;;;5034933;28;20134;-76
2023/03/17 04:28:40;;;;;;;6.97;5.80;;;4.70;99.90;;;;;;5052063;28;20033;-75
2023/03/17 04:31:10;;;;;;;6.30;5.28;;;4.70;99.90;;;;;;5035380;28;20159;-73
2023/03/17 04:33:38;;;;;;;8.52;5.70;;;4.70;99.90;;;;;;5054622;28;20439;-72
2023/03/17 04:36:13;;;;;;;7.70;5.45;;;4.70;99.90;;;;;;5048982;28;20045;-72
2023/03/17 04:38:41;;;;;;;9.10;6.15;;;4.60;99.90;;;;;;5057971;28;20127;-75
2023/03/17 04:41:11;;;;;;;8.52;6.18;;;4.60;99.90;;;;;;5031098;28;20041;-76
2023/03/17 04:43:38;;;;;;;8.82;5.95;;;4.60;99.90;;;;;;5053206;28;20041;-73
2023/03/17 04:46:06;;;;;;;11.20;6.13;;;4.70;99.90;;;;;;5034779;28;20083;-76
2023/03/17 04:48:34;;;;;;;6.68;5.30;;;4.70;99.90;;;;;;5056246;28;20045;-78
2023/03/17 04:51:01;;;;;;;7.22;5.85;;;4.70;99.90;;;;;;5035830;28;20220;-78
2023/03/17 04:53:28;;;;;;;7.80;6.00;;;4.70;99.90;;;;;;4998490;28;20049;-78
2023/03/17 04:55:56;;;;;;;6.28;5.68;;;4.80;99.90;;;;;;5016432;28;20140;-73
2023/03/17 04:58:24;;;;;;;7.60;5.78;;;4.70;99.90;;;;;;5005694;28;20489;-71
2023/03/17 05:00:57;;;;;;;6.60;5.55;;;4.70;99.90;;;;;;5006397;28;20049;-71
2023/03/17 05:03:26;;;;;;;7.75;6.30;;;4.70;99.90;;;;;;5016780;28;20467;-78
2023/03/17 05:05:56;;;;;;;7.57;6.30;;;4.60;99.90;;;;;;5044174;23;20050;-73
2023/03/17 05:08:30;;;;;;;8.73;6.45;;;4.70;99.90;;;;;;5030843;28;20048;-78
2023/03/17 05:10:58;;;;;;;7.78;5.90;;;4.80;99.90;;;;;;5008496;28;20099;-72
2023/03/17 05:13:26;;;;;;;8.60;5.90;;;4.90;99.90;;;;;;5014138;28;20041;-72
2023/03/17 05:15:55;;;;;;;7.95;6.35;;;4.90;99.90;;;;;;5024959;28;20114;-79
2023/03/17 05:18:24;;;;;;;8.45;6.57;;;4.80;99.90;;;;;;5017226;28;20048;-71
2023/03/17 05:20:51;;;;;;;7.57;6.38;;;4.80;99.90;;;;;;5033876;28;20139;-76
2023/03/17 05:23:24;;;;;;;8.82;6.50;;;4.80;99.90;;;;;;5050842;28;20045;-72
2023/03/17 05:25:55;;;;;;;9.65;6.60;;;4.80;99.90;;;;;;5016759;28;20488;-74
2023/03/17 05:28:22;;;;;;;9.90;7.20;;;4.80;99.90;;;;;;5005496;28;20416;-70
2023/03/17 05:30:49;;;;;;;10.43;6.88;;;4.90;99.90;;;;;;5015331;28;20041;-72
2023/03/17 05:33:20;;;;;;;9.60;7.07;;;5.10;99.90;;;;;;5003466;28;20057;-71
2023/03/17 05:35:49;;;;;;;12.80;7.50;;;5.20;99.90;;;;;;5021882;28;20506;-80
2023/03/17 05:38:19;;;;;;;12.25;7.18;;;5.40;99.90;;;;;;5041827;28;20047;-74
2023/03/17 05:40:50;;;;;;;8.70;7.25;;;5.60;99.90;;;;;;5032038;28;20056;-73
2023/03/17 05:43:17;;;;;;;;;;;5.40;99.90;;;;;;5014339;28;20049;-74
2023/03/17 05:45:46;;;;;;;22.85;9.23;;;5.60;99.90;;;;;;5017633;28;19921;-73
2023/03/17 05:48:16;;;;;;;15.13;8.13;;;5.70;99.90;;;;;;5004808;28;20440;-72
2023/03/17 05:50:46;;;;;;;10.55;7.05;;;5.80;99.90;;;;;;4999080;28;20049;-77
2023/03/17 05:53:16;;;;;;;11.25;7.72;;;5.90;99.90;;;;;;5013629;28;20049;-77
2023/03/17 05:55:44;;;;;;;9.20;7.28;;;6.00;99.90;;;;;;5026500;28;20041;-73
2023/03/17 05:58:11;;;;;;;11.50;7.15;;;6.00;99.90;;;;;;5014123;28;20085;-77
2023/03/17 06:00:39;;;;;;;10.85;7.10;;;6.10;99.90;;;;;;5003721;28;20037;-76
2023/03/17 06:03:37;;;;;;;8.60;6.63;;;6.20;99.90;;;;;;5006899;28;20489;-72
2023/03/17 06:06:05;;;;;;;9.82;7.10;;;6.20;99.90;;;;;;5026399;28;20675;-79
2023/03/17 06:08:33;;;;;;;8.38;6.60;;;6.30;99.90;;;;;;5013113;28;20129;-78
2023/03/17 06:11:00;;;;;;;8.27;6.47;;;6.30;99.90;;;;;;5011306;28;20124;-77
2023/03/17 06:13:30;;;;;;;9.52;6.57;;;6.40;99.90;;;;;;5019683;28;20053;-76
2023/03/17 06:16:08;;;;;;;8.68;6.38;;;6.40;99.90;;;;;;5014207;28;20118;-74
2023/03/17 06:18:36;;;;;;;16.17;10.02;;;6.50;99.90;;;;;;4997248;28;20132;-72
2023/03/17 06:21:03;;;;;;;34.03;18.48;;;6.60;99.90;;;;;;5015600;28;20037;-74
2023/03/17 06:23:31;;;;;;;18.67;11.77;;;6.20;99.90;;;;;;5022779;28;20050;-71
2023/03/17 06:25:59;;;;;;;31.13;18.48;;;6.10;99.90;;;;;;5004198;28;20512;-73
2023/03/17 06:28:26;;;;;;;12.57;9.52;;;6.00;99.90;;;;;;5003726;28;20447;-74
2023/03/17 06:30:56;;;;;;;17.02;10.13;;;6.00;99.90;;;;;;5023118;28;20044;-72
2023/03/17 06:33:24;;;;;;;12.25;6.63;;;5.90;99.90;;;;;;5015026;28;20103;-75
2023/03/17 06:35:52;;;;;;;7.15;5.50;;;5.80;99.90;;;;;;5048309;28;20045;-72
2023/03/17 06:38:23;;;;;;;7.50;5.70;;;5.60;99.90;;;;;;5016948;28;20083;-71
2023/03/17 06:40:50;;;;;;;8.90;5.68;;;5.70;99.90;;;;;;4999021;28;20115;-72
2023/03/17 06:43:18;;;;;;;8.00;5.40;;;5.90;99.90;;;;;;5013494;28;20099;-77
2023/03/17 06:45:45;;;;;;;9.23;5.80;;;6.00;99.90;;;;;;5040619;28;20040;-72
2023/03/17 06:48:13;;;;;;;7.72;5.70;;;5.90;99.90;;;;;;5012127;28;20546;-74
2023/03/17 06:50:40;;;;;;;8.48;6.07;;;6.00;99.90;;;;;;5009170;23;20438;-75
2023/03/17 06:53:19;;;;;;;8.35;5.90;;;5.90;99.90;;;;;;5029573;28;20378;-73
2023/03/17 06:55:49;;;;;;;7.07;6.15;;;6.20;99.90;;;;;;5043823;28;20072;-74
2023/03/17 06:58:17;;;;;;;24.48;12.43;;;6.10;99.90;;;;;;5027317;23;20057;-73
2023/03/17 07:01:03;;;;;;;16.67;9.32;;;5.90;99.90;;;;;;5013698;28;20040;-75
2023/03/17 07:03:31;;;;;;;9.27;7.20;;;6.10;99.90;;;;;;5037654;28;20386;-75
2023/03/17 07:05:59;;;;;;;8.77;6.80;;;6.60;99.90;;;;;;5027425;28;20049;-74
2023/03/17 07:08:29;;;;;;;7.50;6.07;;;6.60;99.90;;;;;;5044187;28;20060;-73
2023/03/17 07:10:57;;;;;;;9.13;6.40;;;6.50;99.90;;;;;;5049066;28;20147;-73
2023/03/17 07:13:26;;;;;;;9.07;6.35;;;6.80;99.90;;;;;;5043654;28;20048;-74
2023/03/17 07:15:54;;;;;;;9.35;6.88;;;7.10;99.90;;;;;;5046801;28;20140;-72
2023/03/17 07:18:26;;;;;;;9.63;6.75;;;7.20;99.90;;;;;;5043038;28;20506;-73
2023/03/17 07:20:53;;;;;;;12.35;6.22;;;7.40;99.90;;;;;;5044108;28;20051;-74
2023/03/17 07:23:22;;;;;;;10.30;6.35;;;7.10;99.90;;;;;;5012811;28;20045;-75
2023/03/17 07:26:06;;;;;;;10.65;6.88;;;7.20;99.90;;;;;;5046367;28;20444;-76
2023/03/17 07:28:35;;;;;;;10.43;6.47;;;7.50;99.90;;;;;;5014465;28;20037;-76
2023/03/17 07:31:13;;;;;;;11.55;6.70;;;7.30;99.90;;;;;;5036952;28;20409;-73
2023/03/17 07:33:40;;;;;;;10.68;7.28;;;7.10;99.90;;;;;;4995038;28;20052;-71
2023/03/17 07:36:09;;;;;;;9.82;6.70;;;7.10;99.90;;;;;;5037321;28;20068;-74
2023/03/17 07:38:40;;;;;;;10.68;7.25;;;7.00;99.90;;;;;;5060982;28;20404;-74
2023/03/17 07:41:09;;;;;;;11.23;6.35;;;6.90;99.90;;;;;;5039674;28;20403;-74
2023/03/17 07:43:37;;;;;;;8.60;6.32;;;7.20;99.90;;;;;;5052667;28;20091;-73
2023/03/17 07:46:05;;;;;;;10.23;5.90;;;7.20;99.90;;;;;;5016315;28;20433;-73
2023/03/17 07:48:33;;;;;;;10.27;7.00;;;7.20;99.90;;;;;;5014521;28;20057;-74
2023/03/17 07:51:00;;;;;;;11.40;6.30;;;7.50;99.90;;;;;;5016186;28;20136;-72
2023/03/17 07:53:28;;;;;;;8.30;6.05;;;7.80;99.40;;;;;;5016266;28;20112;-73
2023/03/17 07:56:21;;;;;;;7.95;6.10;;;7.80;99.50;;;;;;5040960;28;20059;-73
2023/03/17 07:58:52;;;;;;;8.32;5.57;;;7.50;99.70;;;;;;5019022;28;20475;-74
2023/03/17 08:01:24;;;;;;;9.38;6.20;;;7.40;99.50;;;;;;5053423;28;20102;-76
2023/03/17 08:04:03;;;;;;;8.82;5.88;;;7.10;99.50;;;;;;5016228;28;20044;-73
2023/03/17 08:06:31;;;;;;;8.18;5.93;;;7.10;99.90;;;;;;5012836;28;20409;-75
2023/03/17 08:08:59;;;;;;;6.47;5.38;;;7.20;99.20;;;;;;5015899;28;20436;-75
2023/03/17 08:11:28;;;;;;;7.90;5.78;;;7.10;98.60;;;;;;5013231;28;20052;-73
2023/03/17 08:13:55;;;;;;;9.23;5.50;;;7.10;98.90;;;;;;5019303;28;20431;-75
2023/03/17 08:16:23;;;;;;;6.70;5.20;;;7.20;98.80;;;;;;5051914;28;20548;-74
2023/03/17 08:18:50;;;;;;;5.63;4.90;;;7.20;98.60;;;;;;5052213;28;20052;-74
2023/03/17 08:21:18;;;;;;;6.55;4.95;;;7.10;98.30;;;;;;5019042;28;20072;-72
2023/03/17 08:23:45;;;;;;;7.43;5.50;;;7.10;98.40;;;;;;5009998;28;20041;-76
2023/03/17 08:26:13;;;;;;;6.00;5.05;;;7.10;98.30;;;;;;5044429;28;20049;-75
2023/03/17 08:28:46;;;;;;;8.02;5.00;;;7.20;98.50;;;;;;5032276;28;20048;-74
2023/03/17 08:31:17;;;;;;;6.50;5.30;;;7.20;98.80;;;;;;5029892;28;20060;-73
2023/03/17 08:33:52;;;;;;;6.13;5.13;;;7.40;98.20;;;;;;5016939;28;20147;-74
2023/03/17 08:36:20;;;;;;;6.15;5.22;;;7.30;98.10;;;;;;5016053;28;20143;-74
2023/03/17 08:39:13;;;;;;;6.40;4.82;;;7.40;98.10;;;;;;5043643;28;20023;-71
2023/03/17 08:42:03;;;;;;;6.50;4.75;;;7.50;97.80;;;;;;5032287;28;20412;-73
2023/03/17 08:44:33;;;;;;;6.43;5.05;;;8.00;97.20;;;;;;5017128;28;20041;-75
2023/03/17 08:47:01;;;;;;;6.47;4.90;;;8.00;95.50;;;;;;5030270;28;20564;-74
2023/03/17 08:49:30;;;;;;;6.25;4.78;;;8.10;95.50;;;;;;5034272;22;20116;-74
2023/03/17 08:51:57;;;;;;;6.03;4.45;;;8.50;95.90;;;;;;5027235;28;20099;-75
2023/03/17 08:54:24;;;;;;;6.00;4.57;;;8.80;94.70;;;;;;4998247;28;20049;-72
2023/03/17 08:56:52;;;;;;;7.15;4.90;;;8.60;95.40;;;;;;5026895;28;20051;-72
2023/03/17 08:59:25;;;;;;;5.72;4.80;;;8.50;95.00;;;;;;5031359;28;20046;-75
2023/03/17 09:01:59;;;;;;;7.80;4.93;;;8.00;95.00;;;;;;4996247;28;20077;-73
2023/03/17 09:04:29;;;;;;;8.88;6.05;;;8.00;96.40;;;;;;5037187;28;20052;-75
2023/03/17 09:06:57;;;;;;;6.68;4.80;;;8.60;95.50;;;;;;4997439;28;20501;-73
2023/03/17 09:09:32;;;;;;;7.38;5.25;;;8.80;94.70;;;;;;5015287;28;20073;-72
2023/03/17 09:12:06;;;;;;;5.40;4.50;;;8.70;93.60;;;;;;5013388;28;20609;-73
2023/03/17 09:14:36;;;;;;;6.55;4.90;;;8.50;93.70;;;;;;5030770;28;20386;-71
2023/03/17 09:17:12;;;;;;;5.35;4.50;;;8.60;93.80;;;;;;4996442;28;20038;-72
2023/03/17 09:19:48;;;;;;;7.85;4.82;;;8.20;93.20;;;;;;4979919;28;20136;-74
2023/03/17 09:22:17;;;;;;;6.07;4.82;;;8.70;93.50;;;;;;4983431;28;20225;-73
2023/03/17 09:24:45;;;;;;;5.93;4.63;;;8.70;93.60;;;;;;4963264;28;20056;-73
2023/03/17 09:27:15;;;;;;;6.10;4.88;;;8.80;92.90;;;;;;4984635;28;20034;-72
2023/03/17 09:29:45;;;;;;;6.30;4.88;;;8.70;93.10;;;;;;4998540;28;20045;-73
2023/03/17 09:32:12;;;;;;;6.60;4.35;;;9.00;92.90;;;;;;4993779;28;20046;-73
2023/03/17 09:34:40;;;;;;;6.00;4.43;;;9.00;92.30;;;;;;4990049;28;20084;-72
2023/03/17 09:37:10;;;;;;;8.57;4.93;;;8.90;91.50;;;;;;4995605;28;20117;-75
2023/03/17 09:39:38;;;;;;;7.15;4.60;;;8.80;92.30;;;;;;5025451;28;20048;-70
2023/03/17 09:42:32;;;;;;;7.72;5.00;;;9.20;92.70;;;;;;4998168;28;20041;-74
2023/03/17 09:45:22;;;;;;;8.25;4.80;;;9.70;92.10;;;;;;5011164;28;20034;-72
2023/03/17 09:48:08;;;;;;;6.63;4.70;;;9.50;92.70;;;;;;5001277;28;20054;-71
2023/03/17 09:50:59;;;;;;;5.68;4.50;;;9.30;91.50;;;;;;5014721;28;20145;-74
2023/03/17 09:54:05;;;;;;;8.98;4.70;;;9.80;91.20;;;;;;5038845;28;20032;-72
2023/03/17 09:57:20;;;;;;;7.32;4.30;;;9.90;90.30;;;;;;5050839;28;20041;-71
2023/03/17 10:00:07;;;;;;;7.38;4.70;;;9.60;90.30;;;;;;5020750;28;20520;-73
2023/03/17 10:02:36;;;;;;;7.88;4.53;;;9.90;90.30;;;;;;5018269;28;20048;-74
2023/03/17 10:05:16;;;;;;;7.38;4.28;;;10.30;88.40;;;;;;5018281;23;20120;-74
2023/03/17 10:08:24;;;;;;;8.15;5.25;;;10.20;87.50;;;;;;5031832;28;20045;-74
2023/03/17 10:11:09;;;;;;;6.10;4.20;;;10.60;85.80;;;;;;5027416;28;20061;-73
2023/03/17 10:13:40;;;;;;;6.88;4.55;;;10.80;87.10;;;;;;5040666;28;20060;-72
2023/03/17 10:16:13;;;;;;;6.50;4.90;;;11.20;86.20;;;;;;5030959;28;20063;-76
2023/03/17 10:18:50;;;;;;;10.27;4.95;;;11.20;90.40;;;;;;5045586;28;20038;-72
2023/03/17 10:21:28;;;;;;;6.82;4.70;;;11.80;90.00;;;;;;5032015;28;20100;-72
2023/03/17 10:23:57;;;;;;;6.70;4.60;;;11.90;84.40;;;;;;5045130;28;20051;-74
2023/03/17 10:26:41;;;;;;;5.78;4.20;;;11.90;82.30;;;;;;5026655;28;20068;-71
2023/03/17 10:29:17;;;;;;;6.20;4.38;;;11.80;82.90;;;;;;5043609;28;20123;-73
2023/03/17 10:31:45;;;;;;;7.25;4.38;;;10.50;85.30;;;;;;5030789;28;20041;-75
2023/03/17 10:34:22;;;;;;;5.80;4.40;;;9.90;87.10;;;;;;5029565;28;20057;-75
2023/03/17 10:36:54;;;;;;;6.68;4.40;;;10.30;86.10;;;;;;5042699;28;20116;-74
2023/03/17 10:39:26;;;;;;;8.10;4.40;;;10.70;88.20;;;;;;5048658;28;20102;-74
2023/03/17 10:42:06;;;;;;;5.07;3.95;;;10.50;87.60;;;;;;5018990;28;20041;-73
2023/03/17 10:44:55;;;;;;;6.03;4.32;;;11.20;86.80;;;;;;5045846;28;20045;-75
2023/03/17 10:47:44;;;;;;;5.78;4.03;;;10.10;85.10;;;;;;5030485;28;20440;-74
2023/03/17 10:50:24;;;;;;;5.90;3.85;;;10.30;84.30;;;;;;5040107;28;20060;-72
2023/03/17 10:53:02;;;;;;;5.70;3.92;;;10.90;84.90;;;;;;5045837;28;20403;-77
2023/03/17 10:55:50;;;;;;;6.03;4.30;;;11.50;83.20;;;;;;5033494;28;20030;-76
2023/03/17 10:58:22;;;;;;;5.68;3.85;;;11.60;81.90;;;;;;5035070;28;20125;-75
2023/03/17 11:00:59;;;;;;;6.72;4.30;;;10.70;81.70;;;;;;5030904;28;20041;-73
2023/03/17 11:03:37;;;;;;;5.95;4.50;;;10.20;83.50;;;;;;5039603;28;20485;-74
2023/03/17 11:06:31;;;;;;;5.28;3.92;;;10.50;82.90;;;;;;5021071;28;20368;-75
2023/03/17 11:09:09;;;;;;;4.97;3.95;;;10.90;81.60;;;;;;5029871;28;20040;-72
2023/03/17 11:11:49;;;;;;;7.25;4.03;;;10.50;83.30;;;;;;5052554;28;20432;-77
2023/03/17 11:14:36;;;;;;;9.82;3.83;;;10.50;83.80;;;;;;5021190;28;20080;-77
2023/03/17 11:20:29;;;;;;;5.43;3.90;;;12.10;77.40;;;;;;5036442;28;20052;-74
2023/03/17 11:23:11;;;;;;;5.88;3.70;;;12.00;78.70;;;;;;5020451;28;20368;-76
2023/03/17 11:25:46;;;;;;;6.13;3.65;;;12.20;77.80;;;;;;5033437;28;20063;-76
2023/03/17 11:28:41;;;;;;;5.88;3.60;;;11.80;79.30;;;;;;5018619;28;20052;-73
2023/03/17 11:31:38;;;;;;;4.60;3.20;;;12.50;82.20;;;;;;5032043;28;20041;-75
2023/03/17 11:34:32;;;;;;;7.15;3.55;;;13.40;74.40;;;;;;5043718;28;20029;-72
2023/03/17 11:37:45;;;;;;;5.70;3.78;;;13.00;74.70;;;;;;5023299;28;20059;-73
2023/03/17 11:40:28;;;;;;;5.50;3.50;;;11.70;76.30;;;;;;5033458;28;20148;-71
2023/03/17 11:43:28;;;;;;;5.45;3.53;;;11.60;77.70;;;;;;5045812;28;20448;-74
2023/03/17 11:46:01;;;;;;;5.63;4.03;;;10.90;80.50;;;;;;5036191;28;20507;-73
2023/03/17 11:49:04;;;;;;;6.80;4.10;;;11.30;79.60;;;;;;5038481;28;20290;-74
2023/03/17 11:51:58;;;;;;;5.50;3.97;;;11.40;79.10;;;;;;5018738;28;20091;-74
2023/03/17 11:54:44;;;;;;;5.63;4.10;;;11.90;77.10;;;;;;5034702;28;20059;-74
2023/03/17 11:57:31;;;;;;;6.95;5.05;;;11.70;76.80;;;;;;5032403;28;20127;-74
2023/03/17 12:00:15;;;;;;;5.50;3.60;;;12.00;76.80;;;;;;5038235;28;20037;-76
2023/03/17 12:02:55;;;;;;;5.97;4.03;;;12.30;75.70;;;;;;5044578;28;20228;-74
2023/03/17 12:05:28;;;;;;;5.05;3.92;;;11.80;77.00;;;;;;5030439;28;20036;-73
2023/03/17 12:08:05;;;;;;;4.78;3.83;;;12.50;74.80;;;;;;5046618;28;20189;-74
2023/03/17 12:10:44;;;;;;;5.63;3.70;;;12.60;74.30;;;;;;5031507;28;20048;-76
2023/03/17 12:14:03;;;;;;;5.97;3.55;;;12.60;75.60;;;;;;5039571;28;20630;-74
2023/03/17 12:16:42;;;;;;;5.90;3.38;;;12.90;73.40;;;;;;5029777;23;20386;-71
2023/03/17 12:19:18;;;;;;;7.68;3.22;;;12.80;73.10;;;;;;5019871;28;20063;-72
2023/03/17 12:22:29;;;;;;;6.13;3.38;;;14.60;70.70;;;;;;5032169;28;20343;-71
2023/03/17 12:25:16;;;;;;;4.15;2.88;;;17.80;62.40;;;;;;5024944;28;20041;-72
2023/03/17 12:28:09;;;;;;;;;;;18.10;59.40;;;;;;5024027;28;20045;-73
2023/03/17 12:30:53;;;;;;;9.90;2.97;;;19.70;55.70;;;;;;5034614;28;19928;-73
2023/03/17 12:33:29;;;;;;;5.65;3.17;;;17.20;58.90;;;;;;5042464;28;20041;-73
2023/03/17 12:36:06;;;;;;;5.35;2.85;;;17.50;57.80;;;;;;5040843;28;20044;-73
2023/03/17 12:38:42;;;;;;;5.85;2.75;;;18.00;57.70;;;;;;5052969;28;20052;-74
2023/03/17 12:41:55;;;;;;;5.93;3.03;;;17.50;58.70;;;;;;5031356;28;20049;-76
2023/03/17 12:48:10;;;;;;;4.45;3.03;;;18.30;56.80;;;;;;5023790;28;20079;-74
2023/03/17 12:51:29;;;;;;;5.05;2.90;;;16.20;58.40;;;;;;5050005;28;20044;-75
2023/03/17 12:54:23;;;;;;;5.13;3.25;;;17.40;58.30;;;;;;5004692;28;20060;-73
2023/03/17 12:57:05;;;;;;;8.05;3.42;;;17.40;57.60;;;;;;5016606;28;20174;-73
2023/03/17 13:00:04;;;;;;;5.05;2.88;;;18.30;55.70;;;;;;5039909;28;20518;-72
2023/03/17 13:02:38;;;;;;;4.85;3.17;;;18.80;54.70;;;;;;5034777;28;20059;-74
2023/03/17 13:05:11;;;;;;;5.40;3.33;;;16.60;58.00;;;;;;5032379;28;20036;-75
2023/03/17 13:07:52;;;;;;;5.35;3.15;;;16.10;59.80;;;;;;5051590;28;20132;-74
2023/03/17 13:10:42;;;;;;;5.00;3.10;;;16.50;58.70;;;;;;5066372;28;20120;-75
2023/03/17 13:13:22;;;;;;;6.80;3.50;;;19.00;54.90;;;;;;5070780;28;20490;-72
2023/03/17 13:15:57;;;;;;;6.45;3.10;;;17.00;56.90;;;;;;5073526;28;20056;-75
2023/03/17 13:18:34;;;;;;;5.60;3.03;;;13.80;62.90;;;;;;5073255;28;20072;-73
2023/03/17 13:21:02;;;;;;;5.90;3.03;;;12.90;65.30;;;;;;5055787;28;20037;-72
2023/03/17 13:24:00;;;;;;;6.30;3.47;;;14.20;65.40;;;;;;5073646;28;20706;-74
2023/03/17 13:26:58;;;;;;;;;;;16.80;58.30;;;;;;5046013;28;20044;-74
2023/03/17 13:29:31;;;;;;;5.45;2.72;;;17.90;57.70;;;;;;5058147;23;19947;-73
2023/03/17 13:32:18;;;;;;;4.82;2.88;;;19.20;53.20;;;;;;5027773;28;20382;-72
2023/03/17 13:35:22;;;;;;;5.28;2.80;;;17.00;58.50;;;;;;5027727;28;20040;-74
2023/03/17 13:38:16;;;;;;;4.32;2.72;;;18.30;57.50;;;;;;5032840;28;20033;-74
2023/03/17 13:41:42;;;;;;;6.28;3.30;;;18.00;56.30;;;;;;5029558;28;20056;-74
2023/03/17 13:44:31;;;;;;;6.20;3.20;;;19.90;55.00;;;;;;5045212;28;20422;-74